sensor_id;sensor_type;location;lat;lon;timestamp;P1;durP1;ratioP1;P2;durP2;ratioP2
5460;SDS011;2753;49.196;8.286;2023-04-08T00:01:07;10.00;;;6.30;;
5460;SDS011;2753;49.196;8.286;2023-04-08T00:03:32;10.40;;;7.00;;
5460;SDS011;2753;49.196;8.286;2023-04-08T00:05:58;10.07;;;7.03;;
5460;SDS011;2753;49.196;8.286;2023-04-08T00:08:26;14.37;;;7.63;;
5460;SDS011;2753;49.196;8.286;2023-04-08T00:10:52;10.50;;;7.50;;
5460;SDS011;2753;49.196;8.286;2023-04-08T00:13:18;14.33;;;7.87;;
5460;SDS011;2753;49.196;8.286;2023-04-08T00:15:43;13.60;;;7.67;;
5460;SDS011;2753;49.196;8.286;2023-04-08T00:18:09;13.43;;;6.73;;
5460;SDS011;2753;49.196;8.286;2023-04-08T00:20:35;12.43;;;8.10;;
5460;SDS011;2753;49.196;8.286;2023-04-08T00:23:01;12.40;;;8.17;;
5460;SDS011;2753;49.196;8.286;2023-04-08T00:25:26;13.50;;;8.00;;
5460;SDS011;2753;49.196;8.286;2023-04-08T00:27:52;9.30;;;6.00;;
5460;SDS011;2753;49.196;8.286;2023-04-08T00:30:18;12.00;;;7.63;;
5460;SDS011;2753;49.196;8.286;2023-04-08T00:32:44;13.47;;;8.00;;
5460;SDS011;2753;49.196;8.286;2023-04-08T00:35:10;10.33;;;7.43;;
5460;SDS011;2753;49.196;8.286;2023-04-08T00:37:37;10.47;;;7.40;;
5460;SDS011;2753;49.196;8.286;2023-04-08T00:40:02;11.03;;;6.97;;
5460;SDS011;2753;49.196;8.286;2023-04-08T00:42:29;10.47;;;7.10;;
5460;SDS011;2753;49.196;8.286;2023-04-08T00:44:55;8.23;;;6.40;;
5460;SDS011;2753;49.196;8.286;2023-04-08T00:47:21;9.27;;;6.47;;
5460;SDS011;2753;49.196;8.286;2023-04-08T00:49:46;9.90;;;6.80;;
5460;SDS011;2753;49.196;8.286;2023-04-08T00:52:12;10.87;;;7.53;;
5460;SDS011;2753;49.196;8.286;2023-04-08T00:54:38;10.53;;;7.13;;
5460;SDS011;2753;49.196;8.286;2023-04-08T00:57:04;11.63;;;7.97;;
5460;SDS011;2753;49.196;8.286;2023-04-08T00:59:30;12.03;;;8.10;;
5460;SDS011;2753;49.196;8.286;2023-04-08T01:05:08;9.50;;;6.40;;
5460;SDS011;2753;49.196;8.286;2023-04-08T01:07:46;10.80;;;7.43;;
5460;SDS011;2753;49.196;8.286;2023-04-08T01:10:17;15.93;;;8.17;;
5460;SDS011;2753;49.196;8.286;2023-04-08T01:12:50;10.23;;;7.10;;
5460;SDS011;2753;49.196;8.286;2023-04-08T01:15:22;11.47;;;7.00;;
5460;SDS011;2753;49.196;8.286;2023-04-08T01:17:54;12.97;;;7.70;;
5460;SDS011;2753;49.196;8.286;2023-04-08T01:20:22;10.97;;;7.63;;
5460;SDS011;2753;49.196;8.286;2023-04-08T01:25:31;10.13;;;7.23;;
5460;SDS011;2753;49.196;8.286;2023-04-08T01:27:59;12.90;;;8.47;;
5460;SDS011;2753;49.196;8.286;2023-04-08T01:30:27;10.10;;;7.13;;
5460;SDS011;2753;49.196;8.286;2023-04-08T01:32:54;14.23;;;7.23;;
5460;SDS011;2753;49.196;8.286;2023-04-08T01:35:21;9.87;;;7.20;;
5460;SDS011;2753;49.196;8.286;2023-04-08T01:37:48;14.23;;;7.47;;
5460;SDS011;2753;49.196;8.286;2023-04-08T01:40:15;11.47;;;7.03;;
5460;SDS011;2753;49.196;8.286;2023-04-08T01:42:43;11.90;;;8.13;;
5460;SDS011;2753;49.196;8.286;2023-04-08T01:45:11;13.60;;;8.90;;
5460;SDS011;2753;49.196;8.286;2023-04-08T01:47:38;13.70;;;7.83;;
5460;SDS011;2753;49.196;8.286;2023-04-08T01:50:05;14.70;;;8.13;;
5460;SDS011;2753;49.196;8.286;2023-04-08T01:52:31;18.43;;;7.57;;
5460;SDS011;2753;49.196;8.286;2023-04-08T01:54:59;13.67;;;8.30;;
5460;SDS011;2753;49.196;8.286;2023-04-08T01:57:26;16.30;;;8.70;;
5460;SDS011;2753;49.196;8.286;2023-04-08T01:59:57;14.17;;;8.43;;
5460;SDS011;2753;49.196;8.286;2023-04-08T02:02:26;12.37;;;8.23;;
5460;SDS011;2753;49.196;8.286;2023-04-08T02:04:53;16.73;;;8.20;;
5460;SDS011;2753;49.196;8.286;2023-04-08T02:07:19;13.33;;;8.30;;
5460;SDS011;2753;49.196;8.286;2023-04-08T02:09:45;10.90;;;7.80;;
5460;SDS011;2753;49.196;8.286;2023-04-08T02:12:11;14.37;;;8.87;;
5460;SDS011;2753;49.196;8.286;2023-04-08T02:14:37;13.63;;;9.53;;
5460;SDS011;2753;49.196;8.286;2023-04-08T02:19:35;13.90;;;8.93;;
5460;SDS011;2753;49.196;8.286;2023-04-08T02:22:11;13.17;;;8.47;;
5460;SDS011;2753;49.196;8.286;2023-04-08T02:24:49;15.53;;;8.87;;
5460;SDS011;2753;49.196;8.286;2023-04-08T02:27:16;15.00;;;9.30;;
5460;SDS011;2753;49.196;8.286;2023-04-08T02:29:43;17.47;;;9.50;;
5460;SDS011;2753;49.196;8.286;2023-04-08T02:32:10;15.23;;;9.00;;
5460;SDS011;2753;49.196;8.286;2023-04-08T02:34:37;15.83;;;8.63;;
5460;SDS011;2753;49.196;8.286;2023-04-08T02:37:05;16.87;;;9.73;;
5460;SDS011;2753;49.196;8.286;2023-04-08T02:39:32;14.17;;;9.70;;
5460;SDS011;2753;49.196;8.286;2023-04-08T02:41:58;17.77;;;9.37;;
5460;SDS011;2753;49.196;8.286;2023-04-08T02:44:24;15.57;;;8.93;;
5460;SDS011;2753;49.196;8.286;2023-04-08T02:46:50;13.03;;;8.37;;
5460;SDS011;2753;49.196;8.286;2023-04-08T02:49:15;12.97;;;8.27;;
5460;SDS011;2753;49.196;8.286;2023-04-08T02:51:41;20.03;;;10.37;;
5460;SDS011;2753;49.196;8.286;2023-04-08T02:54:06;14.60;;;8.83;;
5460;SDS011;2753;49.196;8.286;2023-04-08T02:56:32;15.23;;;9.23;;
5460;SDS011;2753;49.196;8.286;2023-04-08T02:58:58;16.10;;;9.43;;
5460;SDS011;2753;49.196;8.286;2023-04-08T03:01:23;12.17;;;8.53;;
5460;SDS011;2753;49.196;8.286;2023-04-08T03:03:49;15.93;;;9.50;;
5460;SDS011;2753;49.196;8.286;2023-04-08T03:06:15;15.10;;;9.93;;
5460;SDS011;2753;49.196;8.286;2023-04-08T03:08:40;16.63;;;9.70;;
5460;SDS011;2753;49.196;8.286;2023-04-08T03:11:06;16.37;;;10.50;;
5460;SDS011;2753;49.196;8.286;2023-04-08T03:13:32;16.10;;;10.33;;
5460;SDS011;2753;49.196;8.286;2023-04-08T03:15:58;13.60;;;9.33;;
5460;SDS011;2753;49.196;8.286;2023-04-08T03:18:24;15.40;;;9.77;;
5460;SDS011;2753;49.196;8.286;2023-04-08T03:20:49;15.50;;;9.87;;
5460;SDS011;2753;49.196;8.286;2023-04-08T03:23:15;15.47;;;9.40;;
5460;SDS011;2753;49.196;8.286;2023-04-08T03:25:41;18.10;;;10.63;;
5460;SDS011;2753;49.196;8.286;2023-04-08T03:28:07;17.90;;;11.13;;
5460;SDS011;2753;49.196;8.286;2023-04-08T03:30:32;16.33;;;10.47;;
5460;SDS011;2753;49.196;8.286;2023-04-08T03:32:58;14.60;;;9.97;;
5460;SDS011;2753;49.196;8.286;2023-04-08T03:35:24;19.70;;;11.17;;
5460;SDS011;2753;49.196;8.286;2023-04-08T03:37:50;19.13;;;11.80;;
5460;SDS011;2753;49.196;8.286;2023-04-08T03:40:15;21.27;;;10.37;;
5460;SDS011;2753;49.196;8.286;2023-04-08T03:42:41;19.43;;;10.37;;
5460;SDS011;2753;49.196;8.286;2023-04-08T03:45:07;19.70;;;9.90;;
5460;SDS011;2753;49.196;8.286;2023-04-08T03:47:33;18.80;;;11.53;;
5460;SDS011;2753;49.196;8.286;2023-04-08T03:49:58;20.40;;;12.03;;
5460;SDS011;2753;49.196;8.286;2023-04-08T03:52:24;31.50;;;16.57;;
5460;SDS011;2753;49.196;8.286;2023-04-08T03:54:50;26.87;;;14.97;;
5460;SDS011;2753;49.196;8.286;2023-04-08T03:57:15;26.03;;;15.00;;
5460;SDS011;2753;49.196;8.286;2023-04-08T03:59:41;27.27;;;15.80;;
5460;SDS011;2753;49.196;8.286;2023-04-08T04:02:07;22.23;;;13.10;;
5460;SDS011;2753;49.196;8.286;2023-04-08T04:04:32;23.00;;;12.87;;
5460;SDS011;2753;49.196;8.286;2023-04-08T04:07:00;27.03;;;14.60;;
5460;SDS011;2753;49.196;8.286;2023-04-08T04:09:26;25.13;;;13.50;;
5460;SDS011;2753;49.196;8.286;2023-04-08T04:11:52;21.33;;;12.80;;
5460;SDS011;2753;49.196;8.286;2023-04-08T04:14:17;21.30;;;14.67;;
5460;SDS011;2753;49.196;8.286;2023-04-08T04:16:43;28.10;;;15.77;;
5460;SDS011;2753;49.196;8.286;2023-04-08T04:19:09;23.47;;;13.30;;
5460;SDS011;2753;49.196;8.286;2023-04-08T04:21:35;23.40;;;14.10;;
5460;SDS011;2753;49.196;8.286;2023-04-08T04:24:00;23.03;;;14.10;;
5460;SDS011;2753;49.196;8.286;2023-04-08T04:26:26;24.27;;;13.33;;
5460;SDS011;2753;49.196;8.286;2023-04-08T04:28:52;18.53;;;11.70;;
5460;SDS011;2753;49.196;8.286;2023-04-08T04:31:18;21.90;;;11.93;;
5460;SDS011;2753;49.196;8.286;2023-04-08T04:33:45;16.03;;;11.33;;
5460;SDS011;2753;49.196;8.286;2023-04-08T04:36:11;15.57;;;10.47;;
5460;SDS011;2753;49.196;8.286;2023-04-08T04:38:37;17.50;;;11.60;;
5460;SDS011;2753;49.196;8.286;2023-04-08T04:41:03;18.13;;;11.03;;
5460;SDS011;2753;49.196;8.286;2023-04-08T04:43:28;17.97;;;11.23;;
5460;SDS011;2753;49.196;8.286;2023-04-08T04:45:54;19.70;;;10.57;;
5460;SDS011;2753;49.196;8.286;2023-04-08T04:48:21;18.70;;;11.23;;
5460;SDS011;2753;49.196;8.286;2023-04-08T04:50:57;17.37;;;10.07;;
5460;SDS011;2753;49.196;8.286;2023-04-08T04:53:23;21.00;;;10.27;;
5460;SDS011;2753;49.196;8.286;2023-04-08T04:55:49;16.40;;;8.50;;
5460;SDS011;2753;49.196;8.286;2023-04-08T04:58:15;13.60;;;9.20;;
5460;SDS011;2753;49.196;8.286;2023-04-08T05:00:41;13.90;;;9.50;;
5460;SDS011;2753;49.196;8.286;2023-04-08T05:03:07;21.73;;;9.03;;
5460;SDS011;2753;49.196;8.286;2023-04-08T05:05:33;14.77;;;9.80;;
5460;SDS011;2753;49.196;8.286;2023-04-08T05:07:59;14.50;;;8.63;;
5460;SDS011;2753;49.196;8.286;2023-04-08T05:10:25;16.90;;;10.33;;
5460;SDS011;2753;49.196;8.286;2023-04-08T05:12:51;18.03;;;9.87;;
5460;SDS011;2753;49.196;8.286;2023-04-08T05:15:16;17.47;;;9.80;;
5460;SDS011;2753;49.196;8.286;2023-04-08T05:17:42;17.53;;;9.80;;
5460;SDS011;2753;49.196;8.286;2023-04-08T05:20:07;15.67;;;9.77;;
5460;SDS011;2753;49.196;8.286;2023-04-08T05:22:33;14.40;;;9.30;;
5460;SDS011;2753;49.196;8.286;2023-04-08T05:24:59;17.23;;;9.23;;
5460;SDS011;2753;49.196;8.286;2023-04-08T05:27:25;19.60;;;9.70;;
5460;SDS011;2753;49.196;8.286;2023-04-08T05:29:51;17.67;;;11.13;;
5460;SDS011;2753;49.196;8.286;2023-04-08T05:32:17;18.70;;;10.97;;
5460;SDS011;2753;49.196;8.286;2023-04-08T05:34:43;17.57;;;10.37;;
5460;SDS011;2753;49.196;8.286;2023-04-08T05:37:08;16.47;;;10.83;;
5460;SDS011;2753;49.196;8.286;2023-04-08T05:39:34;18.30;;;9.80;;
5460;SDS011;2753;49.196;8.286;2023-04-08T05:42:00;18.20;;;10.80;;
5460;SDS011;2753;49.196;8.286;2023-04-08T05:44:26;19.97;;;11.33;;
5460;SDS011;2753;49.196;8.286;2023-04-08T05:46:51;19.93;;;9.67;;
5460;SDS011;2753;49.196;8.286;2023-04-08T05:49:17;20.43;;;11.23;;
5460;SDS011;2753;49.196;8.286;2023-04-08T05:51:43;21.13;;;12.00;;
5460;SDS011;2753;49.196;8.286;2023-04-08T05:54:09;17.30;;;9.70;;
5460;SDS011;2753;49.196;8.286;2023-04-08T05:56:34;20.73;;;11.40;;
5460;SDS011;2753;49.196;8.286;2023-04-08T05:59:00;19.17;;;10.23;;
5460;SDS011;2753;49.196;8.286;2023-04-08T06:01:26;17.70;;;10.43;;
5460;SDS011;2753;49.196;8.286;2023-04-08T06:03:51;17.17;;;10.60;;
5460;SDS011;2753;49.196;8.286;2023-04-08T06:06:19;19.10;;;11.10;;
5460;SDS011;2753;49.196;8.286;2023-04-08T06:08:45;24.37;;;12.33;;
5460;SDS011;2753;49.196;8.286;2023-04-08T06:11:11;21.07;;;12.27;;
5460;SDS011;2753;49.196;8.286;2023-04-08T06:13:36;18.80;;;11.57;;
5460;SDS011;2753;49.196;8.286;2023-04-08T06:16:09;20.63;;;12.03;;
5460;SDS011;2753;49.196;8.286;2023-04-08T06:18:38;20.63;;;11.87;;
5460;SDS011;2753;49.196;8.286;2023-04-08T06:21:03;23.47;;;12.70;;
5460;SDS011;2753;49.196;8.286;2023-04-08T06:23:29;28.27;;;13.03;;
5460;SDS011;2753;49.196;8.286;2023-04-08T06:25:55;25.70;;;11.67;;
5460;SDS011;2753;49.196;8.286;2023-04-08T06:28:21;32.30;;;14.33;;
5460;SDS011;2753;49.196;8.286;2023-04-08T06:30:46;57.27;;;15.90;;
5460;SDS011;2753;49.196;8.286;2023-04-08T06:33:12;44.50;;;13.20;;
5460;SDS011;2753;49.196;8.286;2023-04-08T06:35:38;39.13;;;12.53;;
5460;SDS011;2753;49.196;8.286;2023-04-08T06:38:03;43.93;;;13.90;;
5460;SDS011;2753;49.196;8.286;2023-04-08T06:40:29;39.30;;;14.07;;
5460;SDS011;2753;49.196;8.286;2023-04-08T06:42:55;20.20;;;12.07;;
5460;SDS011;2753;49.196;8.286;2023-04-08T06:45:21;22.83;;;13.43;;
5460;SDS011;2753;49.196;8.286;2023-04-08T06:47:47;23.43;;;13.67;;
5460;SDS011;2753;49.196;8.286;2023-04-08T06:50:13;40.10;;;15.70;;
5460;SDS011;2753;49.196;8.286;2023-04-08T06:52:38;29.67;;;14.20;;
5460;SDS011;2753;49.196;8.286;2023-04-08T06:55:04;41.10;;;15.20;;
5460;SDS011;2753;49.196;8.286;2023-04-08T06:57:30;31.87;;;15.53;;
5460;SDS011;2753;49.196;8.286;2023-04-08T06:59:56;33.37;;;15.47;;
5460;SDS011;2753;49.196;8.286;2023-04-08T07:02:21;29.97;;;13.83;;
5460;SDS011;2753;49.196;8.286;2023-04-08T07:04:47;24.53;;;14.27;;
5460;SDS011;2753;49.196;8.286;2023-04-08T07:07:13;22.77;;;13.10;;
5460;SDS011;2753;49.196;8.286;2023-04-08T07:09:39;22.83;;;13.20;;
5460;SDS011;2753;49.196;8.286;2023-04-08T07:12:07;23.57;;;13.20;;
5460;SDS011;2753;49.196;8.286;2023-04-08T07:14:32;21.07;;;12.50;;
5460;SDS011;2753;49.196;8.286;2023-04-08T07:16:58;19.83;;;12.03;;
5460;SDS011;2753;49.196;8.286;2023-04-08T07:19:24;18.60;;;10.60;;
5460;SDS011;2753;49.196;8.286;2023-04-08T07:21:50;19.63;;;11.73;;
5460;SDS011;2753;49.196;8.286;2023-04-08T07:24:16;25.23;;;10.13;;
5460;SDS011;2753;49.196;8.286;2023-04-08T07:26:42;27.73;;;10.30;;
5460;SDS011;2753;49.196;8.286;2023-04-08T07:29:08;23.23;;;10.97;;
5460;SDS011;2753;49.196;8.286;2023-04-08T07:31:34;18.83;;;10.53;;
5460;SDS011;2753;49.196;8.286;2023-04-08T07:34:00;28.73;;;10.50;;
5460;SDS011;2753;49.196;8.286;2023-04-08T07:36:25;18.73;;;10.60;;
5460;SDS011;2753;49.196;8.286;2023-04-08T07:38:52;17.53;;;11.07;;
5460;SDS011;2753;49.196;8.286;2023-04-08T07:41:17;17.30;;;10.37;;
5460;SDS011;2753;49.196;8.286;2023-04-08T07:43:43;16.30;;;10.00;;
5460;SDS011;2753;49.196;8.286;2023-04-08T07:46:09;48.33;;;10.87;;
5460;SDS011;2753;49.196;8.286;2023-04-08T07:48:35;27.57;;;11.30;;
5460;SDS011;2753;49.196;8.286;2023-04-08T07:51:07;12.03;;;8.97;;
5460;SDS011;2753;49.196;8.286;2023-04-08T07:53:33;10.83;;;8.67;;
5460;SDS011;2753;49.196;8.286;2023-04-08T07:56:00;12.13;;;8.60;;
5460;SDS011;2753;49.196;8.286;2023-04-08T07:58:28;11.53;;;8.10;;
5460;SDS011;2753;49.196;8.286;2023-04-08T08:00:54;15.37;;;10.27;;
5460;SDS011;2753;49.196;8.286;2023-04-08T08:03:21;12.80;;;8.93;;
5460;SDS011;2753;49.196;8.286;2023-04-08T08:05:47;13.93;;;9.70;;
5460;SDS011;2753;49.196;8.286;2023-04-08T08:08:13;16.47;;;10.40;;
5460;SDS011;2753;49.196;8.286;2023-04-08T08:10:39;16.10;;;9.87;;
5460;SDS011;2753;49.196;8.286;2023-04-08T08:13:05;16.07;;;10.00;;
5460;SDS011;2753;49.196;8.286;2023-04-08T08:15:31;13.87;;;9.80;;
5460;SDS011;2753;49.196;8.286;2023-04-08T08:17:57;14.50;;;9.67;;
5460;SDS011;2753;49.196;8.286;2023-04-08T08:20:23;14.03;;;9.63;;
5460;SDS011;2753;49.196;8.286;2023-04-08T08:22:49;14.40;;;8.87;;
5460;SDS011;2753;49.196;8.286;2023-04-08T08:25:15;14.73;;;9.90;;
5460;SDS011;2753;49.196;8.286;2023-04-08T08:27:41;14.90;;;9.87;;
5460;SDS011;2753;49.196;8.286;2023-04-08T08:30:08;15.03;;;9.07;;
5460;SDS011;2753;49.196;8.286;2023-04-08T08:32:34;19.83;;;10.80;;
5460;SDS011;2753;49.196;8.286;2023-04-08T08:35:00;13.90;;;10.30;;
5460;SDS011;2753;49.196;8.286;2023-04-08T08:37:26;15.00;;;11.10;;
5460;SDS011;2753;49.196;8.286;2023-04-08T08:39:51;16.47;;;11.33;;
5460;SDS011;2753;49.196;8.286;2023-04-08T08:42:21;14.20;;;10.30;;
5460;SDS011;2753;49.196;8.286;2023-04-08T08:44:47;14.70;;;10.60;;
5460;SDS011;2753;49.196;8.286;2023-04-08T08:47:17;15.80;;;10.10;;
5460;SDS011;2753;49.196;8.286;2023-04-08T08:49:43;14.40;;;10.00;;
5460;SDS011;2753;49.196;8.286;2023-04-08T08:52:09;16.97;;;10.63;;
5460;SDS011;2753;49.196;8.286;2023-04-08T08:54:39;14.97;;;11.03;;
5460;SDS011;2753;49.196;8.286;2023-04-08T08:57:14;16.80;;;10.53;;
5460;SDS011;2753;49.196;8.286;2023-04-08T08:59:47;18.00;;;10.77;;
5460;SDS011;2753;49.196;8.286;2023-04-08T09:02:29;13.00;;;9.87;;
5460;SDS011;2753;49.196;8.286;2023-04-08T09:05:05;14.83;;;10.23;;
5460;SDS011;2753;49.196;8.286;2023-04-08T09:07:31;15.13;;;10.70;;
5460;SDS011;2753;49.196;8.286;2023-04-08T09:10:00;11.43;;;9.70;;
5460;SDS011;2753;49.196;8.286;2023-04-08T09:12:26;12.93;;;10.40;;
5460;SDS011;2753;49.196;8.286;2023-04-08T09:15:05;14.50;;;10.63;;
5460;SDS011;2753;49.196;8.286;2023-04-08T09:17:36;17.40;;;10.60;;
5460;SDS011;2753;49.196;8.286;2023-04-08T09:20:03;13.30;;;10.23;;
5460;SDS011;2753;49.196;8.286;2023-04-08T09:25:21;13.47;;;10.13;;
5460;SDS011;2753;49.196;8.286;2023-04-08T09:27:51;15.17;;;10.53;;
5460;SDS011;2753;49.196;8.286;2023-04-08T09:30:18;14.90;;;10.97;;
5460;SDS011;2753;49.196;8.286;2023-04-08T09:32:46;15.33;;;11.40;;
5460;SDS011;2753;49.196;8.286;2023-04-08T09:35:19;14.10;;;10.80;;
5460;SDS011;2753;49.196;8.286;2023-04-08T09:37:45;14.43;;;9.97;;
5460;SDS011;2753;49.196;8.286;2023-04-08T09:40:12;13.73;;;10.10;;
5460;SDS011;2753;49.196;8.286;2023-04-08T09:42:40;14.27;;;10.43;;
5460;SDS011;2753;49.196;8.286;2023-04-08T09:45:09;11.23;;;9.07;;
5460;SDS011;2753;49.196;8.286;2023-04-08T09:47:39;12.57;;;10.03;;
5460;SDS011;2753;49.196;8.286;2023-04-08T09:50:22;12.57;;;9.60;;
5460;SDS011;2753;49.196;8.286;2023-04-08T09:52:52;13.57;;;9.30;;
5460;SDS011;2753;49.196;8.286;2023-04-08T09:55:23;10.30;;;8.83;;
5460;SDS011;2753;49.196;8.286;2023-04-08T09:57:54;13.50;;;9.50;;
5460;SDS011;2753;49.196;8.286;2023-04-08T10:00:27;11.20;;;8.90;;
5460;SDS011;2753;49.196;8.286;2023-04-08T10:05:49;14.00;;;10.10;;
5460;SDS011;2753;49.196;8.286;2023-04-08T10:08:17;12.17;;;9.40;;
5460;SDS011;2753;49.196;8.286;2023-04-08T10:10:44;38.47;;;17.67;;
5460;SDS011;2753;49.196;8.286;2023-04-08T10:13:10;11.67;;;9.60;;
5460;SDS011;2753;49.196;8.286;2023-04-08T10:15:36;13.90;;;10.27;;
5460;SDS011;2753;49.196;8.286;2023-04-08T10:23:02;13.03;;;8.57;;
5460;SDS011;2753;49.196;8.286;2023-04-08T10:25:37;13.37;;;9.57;;
5460;SDS011;2753;49.196;8.286;2023-04-08T10:30:48;11.90;;;8.97;;
5460;SDS011;2753;49.196;8.286;2023-04-08T10:33:32;13.50;;;10.37;;
5460;SDS011;2753;49.196;8.286;2023-04-08T10:38:34;14.17;;;9.90;;
5460;SDS011;2753;49.196;8.286;2023-04-08T10:41:00;13.93;;;10.00;;
5460;SDS011;2753;49.196;8.286;2023-04-08T10:43:27;14.80;;;10.80;;
5460;SDS011;2753;49.196;8.286;2023-04-08T10:45:57;15.40;;;11.80;;
5460;SDS011;2753;49.196;8.286;2023-04-08T10:48:23;18.80;;;11.07;;
5460;SDS011;2753;49.196;8.286;2023-04-08T10:53:27;16.30;;;11.20;;
5460;SDS011;2753;49.196;8.286;2023-04-08T10:56:04;19.83;;;11.60;;
5460;SDS011;2753;49.196;8.286;2023-04-08T10:58:31;13.67;;;10.83;;
5460;SDS011;2753;49.196;8.286;2023-04-08T11:01:04;16.30;;;11.00;;
5460;SDS011;2753;49.196;8.286;2023-04-08T11:03:31;15.57;;;10.73;;
5460;SDS011;2753;49.196;8.286;2023-04-08T11:05:58;14.00;;;9.80;;
5460;SDS011;2753;49.196;8.286;2023-04-08T11:08:28;16.40;;;9.73;;
5460;SDS011;2753;49.196;8.286;2023-04-08T11:10:54;14.27;;;10.73;;
5460;SDS011;2753;49.196;8.286;2023-04-08T11:13:21;15.37;;;10.90;;
5460;SDS011;2753;49.196;8.286;2023-04-08T11:15:47;13.50;;;10.03;;
5460;SDS011;2753;49.196;8.286;2023-04-08T11:18:14;11.43;;;8.53;;
5460;SDS011;2753;49.196;8.286;2023-04-08T11:20:41;12.30;;;9.10;;
5460;SDS011;2753;49.196;8.286;2023-04-08T11:23:15;15.10;;;9.80;;
5460;SDS011;2753;49.196;8.286;2023-04-08T11:25:41;16.57;;;9.63;;
5460;SDS011;2753;49.196;8.286;2023-04-08T11:28:09;16.00;;;9.93;;
5460;SDS011;2753;49.196;8.286;2023-04-08T11:30:36;15.10;;;10.60;;
5460;SDS011;2753;49.196;8.286;2023-04-08T11:33:03;56.00;;;24.00;;
5460;SDS011;2753;49.196;8.286;2023-04-08T11:35:29;13.07;;;9.50;;
5460;SDS011;2753;49.196;8.286;2023-04-08T11:37:55;17.30;;;10.50;;
5460;SDS011;2753;49.196;8.286;2023-04-08T11:40:22;12.70;;;10.00;;
5460;SDS011;2753;49.196;8.286;2023-04-08T11:42:48;15.17;;;10.23;;
5460;SDS011;2753;49.196;8.286;2023-04-08T11:45:15;14.80;;;10.07;;
5460;SDS011;2753;49.196;8.286;2023-04-08T11:47:42;12.40;;;9.60;;
5460;SDS011;2753;49.196;8.286;2023-04-08T11:50:08;15.10;;;10.20;;
5460;SDS011;2753;49.196;8.286;2023-04-08T11:55:10;14.90;;;10.47;;
5460;SDS011;2753;49.196;8.286;2023-04-08T11:57:36;13.73;;;10.50;;
5460;SDS011;2753;49.196;8.286;2023-04-08T12:00:04;13.00;;;10.63;;
5460;SDS011;2753;49.196;8.286;2023-04-08T12:02:30;10.23;;;8.93;;
5460;SDS011;2753;49.196;8.286;2023-04-08T12:04:56;14.70;;;9.60;;
5460;SDS011;2753;49.196;8.286;2023-04-08T12:07:21;17.63;;;9.20;;
5460;SDS011;2753;49.196;8.286;2023-04-08T12:09:47;11.10;;;9.40;;
5460;SDS011;2753;49.196;8.286;2023-04-08T12:12:13;12.53;;;9.83;;
5460;SDS011;2753;49.196;8.286;2023-04-08T12:14:38;11.50;;;9.93;;
5460;SDS011;2753;49.196;8.286;2023-04-08T12:17:04;14.77;;;11.30;;
5460;SDS011;2753;49.196;8.286;2023-04-08T12:19:29;12.10;;;10.13;;
5460;SDS011;2753;49.196;8.286;2023-04-08T12:21:55;11.60;;;10.20;;
5460;SDS011;2753;49.196;8.286;2023-04-08T12:24:21;14.77;;;11.30;;
5460;SDS011;2753;49.196;8.286;2023-04-08T12:26:46;16.50;;;11.00;;
5460;SDS011;2753;49.196;8.286;2023-04-08T12:29:12;21.73;;;9.80;;
5460;SDS011;2753;49.196;8.286;2023-04-08T12:31:37;16.87;;;11.50;;
5460;SDS011;2753;49.196;8.286;2023-04-08T12:34:03;18.37;;;12.70;;
5460;SDS011;2753;49.196;8.286;2023-04-08T12:36:29;24.33;;;14.57;;
5460;SDS011;2753;49.196;8.286;2023-04-08T12:38:55;20.80;;;12.90;;
5460;SDS011;2753;49.196;8.286;2023-04-08T12:41:21;22.47;;;13.57;;
5460;SDS011;2753;49.196;8.286;2023-04-08T12:43:47;20.43;;;12.17;;
5460;SDS011;2753;49.196;8.286;2023-04-08T12:46:12;14.90;;;10.30;;
5460;SDS011;2753;49.196;8.286;2023-04-08T12:48:38;21.90;;;12.57;;
5460;SDS011;2753;49.196;8.286;2023-04-08T12:51:04;51.53;;;21.00;;
5460;SDS011;2753;49.196;8.286;2023-04-08T12:53:29;21.23;;;12.40;;
5460;SDS011;2753;49.196;8.286;2023-04-08T12:55:55;13.90;;;9.73;;
5460;SDS011;2753;49.196;8.286;2023-04-08T12:58:22;15.50;;;8.77;;
5460;SDS011;2753;49.196;8.286;2023-04-08T13:00:49;11.00;;;8.90;;
5460;SDS011;2753;49.196;8.286;2023-04-08T13:03:15;18.70;;;11.30;;
5460;SDS011;2753;49.196;8.286;2023-04-08T13:05:41;35.30;;;14.00;;
5460;SDS011;2753;49.196;8.286;2023-04-08T13:08:08;14.63;;;8.50;;
5460;SDS011;2753;49.196;8.286;2023-04-08T13:10:34;13.30;;;8.10;;
5460;SDS011;2753;49.196;8.286;2023-04-08T13:13:00;13.83;;;9.53;;
5460;SDS011;2753;49.196;8.286;2023-04-08T13:15:26;10.50;;;9.10;;
5460;SDS011;2753;49.196;8.286;2023-04-08T13:17:52;20.80;;;10.80;;
5460;SDS011;2753;49.196;8.286;2023-04-08T13:20:18;8.60;;;7.40;;
5460;SDS011;2753;49.196;8.286;2023-04-08T13:22:43;11.40;;;8.67;;
5460;SDS011;2753;49.196;8.286;2023-04-08T13:25:10;11.40;;;7.60;;
5460;SDS011;2753;49.196;8.286;2023-04-08T13:27:36;11.07;;;7.27;;
5460;SDS011;2753;49.196;8.286;2023-04-08T13:30:02;11.93;;;6.40;;
5460;SDS011;2753;49.196;8.286;2023-04-08T13:32:28;11.50;;;8.00;;
5460;SDS011;2753;49.196;8.286;2023-04-08T13:34:53;11.40;;;7.67;;
5460;SDS011;2753;49.196;8.286;2023-04-08T13:37:19;15.07;;;9.43;;
5460;SDS011;2753;49.196;8.286;2023-04-08T13:39:45;8.13;;;6.13;;
5460;SDS011;2753;49.196;8.286;2023-04-08T13:42:10;17.53;;;9.23;;
5460;SDS011;2753;49.196;8.286;2023-04-08T13:44:36;8.80;;;7.03;;
5460;SDS011;2753;49.196;8.286;2023-04-08T13:47:02;14.13;;;8.33;;
5460;SDS011;2753;49.196;8.286;2023-04-08T13:49:27;12.63;;;8.03;;
5460;SDS011;2753;49.196;8.286;2023-04-08T13:51:53;13.50;;;8.63;;
5460;SDS011;2753;49.196;8.286;2023-04-08T13:54:19;11.43;;;8.60;;
5460;SDS011;2753;49.196;8.286;2023-04-08T13:56:45;11.60;;;8.50;;
5460;SDS011;2753;49.196;8.286;2023-04-08T13:59:10;9.27;;;7.70;;
5460;SDS011;2753;49.196;8.286;2023-04-08T14:01:36;13.70;;;8.50;;
5460;SDS011;2753;49.196;8.286;2023-04-08T14:04:02;15.30;;;8.30;;
5460;SDS011;2753;49.196;8.286;2023-04-08T14:06:27;11.67;;;8.13;;
5460;SDS011;2753;49.196;8.286;2023-04-08T14:08:53;11.00;;;7.93;;
5460;SDS011;2753;49.196;8.286;2023-04-08T14:11:19;11.03;;;8.30;;
5460;SDS011;2753;49.196;8.286;2023-04-08T14:13:45;14.73;;;8.00;;
5460;SDS011;2753;49.196;8.286;2023-04-08T14:16:10;14.97;;;8.97;;
5460;SDS011;2753;49.196;8.286;2023-04-08T14:18:36;15.60;;;9.40;;
5460;SDS011;2753;49.196;8.286;2023-04-08T14:21:02;12.43;;;7.90;;
5460;SDS011;2753;49.196;8.286;2023-04-08T14:23:29;51.33;;;20.50;;
5460;SDS011;2753;49.196;8.286;2023-04-08T14:25:55;22.00;;;9.33;;
5460;SDS011;2753;49.196;8.286;2023-04-08T14:28:20;16.90;;;8.07;;
5460;SDS011;2753;49.196;8.286;2023-04-08T14:30:46;13.63;;;7.73;;
5460;SDS011;2753;49.196;8.286;2023-04-08T14:33:11;9.50;;;7.53;;
5460;SDS011;2753;49.196;8.286;2023-04-08T14:35:37;11.17;;;8.40;;
5460;SDS011;2753;49.196;8.286;2023-04-08T14:38:03;13.90;;;9.23;;
5460;SDS011;2753;49.196;8.286;2023-04-08T14:40:28;10.97;;;8.23;;
5460;SDS011;2753;49.196;8.286;2023-04-08T14:42:54;13.50;;;8.23;;
5460;SDS011;2753;49.196;8.286;2023-04-08T14:45:19;10.33;;;7.53;;
5460;SDS011;2753;49.196;8.286;2023-04-08T14:47:45;19.10;;;11.00;;
5460;SDS011;2753;49.196;8.286;2023-04-08T14:50:11;11.83;;;7.57;;
5460;SDS011;2753;49.196;8.286;2023-04-08T14:52:37;8.60;;;6.83;;
5460;SDS011;2753;49.196;8.286;2023-04-08T14:55:02;9.77;;;7.30;;
5460;SDS011;2753;49.196;8.286;2023-04-08T14:57:28;11.13;;;6.70;;
5460;SDS011;2753;49.196;8.286;2023-04-08T14:59:54;18.87;;;7.37;;
5460;SDS011;2753;49.196;8.286;2023-04-08T15:02:19;9.07;;;6.60;;
5460;SDS011;2753;49.196;8.286;2023-04-08T15:04:45;9.50;;;7.60;;
5460;SDS011;2753;49.196;8.286;2023-04-08T15:07:11;8.90;;;7.10;;
5460;SDS011;2753;49.196;8.286;2023-04-08T15:09:36;12.37;;;6.80;;
5460;SDS011;2753;49.196;8.286;2023-04-08T15:12:02;7.80;;;6.10;;
5460;SDS011;2753;49.196;8.286;2023-04-08T15:14:29;10.90;;;7.30;;
5460;SDS011;2753;49.196;8.286;2023-04-08T15:16:54;12.43;;;6.47;;
5460;SDS011;2753;49.196;8.286;2023-04-08T15:19:20;8.70;;;6.37;;
5460;SDS011;2753;49.196;8.286;2023-04-08T15:21:46;9.43;;;6.27;;